KNQA

Millington Regional Jetport Airport

Millington, Tennessee, USA
METAR KNQA 181150Z 05006KT 10SM CLR 10/04 A3045
Observed Flight Rules
Oct-18 @ 11:50 UTC (25 minutes ago) Visual Flight Rules
Wind Visibility Clouds
50° at 6 knots 10 miles
  • Clear skies
Temperatures Readings
Current 10°C / 50°F
Dewpoint 4°C / 39°F
Humidity 67%
Altimeter 30.45" Hg
Pressure 1031 hPa
Elevation 86
METAR KNQA 181150Z 05006KT 10SM CLR 10/04 A3045
Observed Flight Rules
Oct-18 @ 11:50 UTC
(25 minutes ago)
VFR
Wind Visibility
50° at 6 knots 10 miles
Clouds
  • Clear skies
Temperature Dewpoint
10°C / 50°F 4°C / 39°F
Humidity Altimeter Pressure
67% 30.45" Hg 1031 hPa